createdAt,value
2019-03-02T00:01:36.495Z,15.23
2019-03-02T00:04:09.615Z,13.50
2019-03-02T00:06:37.177Z,14.23
2019-03-02T00:09:07.361Z,13.93
2019-03-02T00:11:36.796Z,13.63
2019-03-02T00:14:06.244Z,14.33
2019-03-02T00:16:35.671Z,14.63
2019-03-02T00:19:06.790Z,14.30
2019-03-02T00:21:36.300Z,16.23
2019-03-02T00:24:05.738Z,14.37
2019-03-02T00:26:35.173Z,15.07
2019-03-02T00:29:07.688Z,15.03
2019-03-02T00:31:35.782Z,14.57
2019-03-02T00:34:05.221Z,15.63
2019-03-02T00:36:34.674Z,16.47
2019-03-02T00:39:05.053Z,17.63
2019-03-02T00:41:34.478Z,17.57
2019-03-02T00:44:04.817Z,17.13
2019-03-02T00:46:34.338Z,17.30
2019-03-02T00:49:03.773Z,15.40
2019-03-02T00:51:33.201Z,16.00
2019-03-02T00:54:02.723Z,17.77
2019-03-02T00:56:32.150Z,17.47
2019-03-02T00:59:03.903Z,20.10
2019-03-02T01:01:32.744Z,19.13
2019-03-02T01:04:02.180Z,18.87
2019-03-02T01:06:31.622Z,21.90
2019-03-02T01:09:01.056Z,18.70
2019-03-02T01:11:32.893Z,18.93
2019-03-02T01:14:01.678Z,16.83
2019-03-02T01:16:31.127Z,20.13
2019-03-02T01:19:00.558Z,18.83
2019-03-02T01:21:30.009Z,20.60
2019-03-02T01:23:59.724Z,17.47
2019-03-02T01:26:30.624Z,18.53
2019-03-02T01:29:00.410Z,18.77
2019-03-02T01:31:29.859Z,19.67
2019-03-02T01:34:00.669Z,20.73
2019-03-02T01:36:32.247Z,19.03
2019-03-02T01:39:01.647Z,19.23
2019-03-02T01:41:31.087Z,20.40
2019-03-02T01:44:00.529Z,18.53
2019-03-02T01:46:29.963Z,19.23
2019-03-02T01:49:01.617Z,17.50
2019-03-02T01:51:30.578Z,18.53
2019-03-02T01:54:00.001Z,18.93
2019-03-02T01:56:29.448Z,19.37
2019-03-02T01:59:00.632Z,20.70
2019-03-02T02:01:30.135Z,23.13
2019-03-02T02:03:59.564Z,19.80
2019-03-02T02:06:29.082Z,18.60
2019-03-02T02:09:01.747Z,20.10
2019-03-02T02:11:29.942Z,21.67
2019-03-02T02:13:59.383Z,20.23
2019-03-02T02:16:28.820Z,20.30
2019-03-02T02:18:59.334Z,20.53
2019-03-02T02:21:28.964Z,19.83
2019-03-02T02:23:58.403Z,18.80
2019-03-02T02:26:27.845Z,18.60
2019-03-02T02:28:57.283Z,19.90
2019-03-02T02:31:26.746Z,21.00
2019-03-02T02:33:56.179Z,22.33
2019-03-02T02:36:25.626Z,19.33
2019-03-02T02:38:55.803Z,18.73
2019-03-02T02:41:25.346Z,23.63
2019-03-02T02:43:59.052Z,21.87
2019-03-02T02:46:27.315Z,20.87
2019-03-02T02:48:57.123Z,22.53
2019-03-02T02:51:26.561Z,22.70
2019-03-02T02:53:55.995Z,22.23
2019-03-02T02:56:25.442Z,22.47
2019-03-02T02:58:56.290Z,23.50
2019-03-02T03:01:32.969Z,25.10
2019-03-02T03:03:59.377Z,27.80
2019-03-02T03:06:32.080Z,24.57
2019-03-02T03:08:59.530Z,26.23
2019-03-02T03:11:28.979Z,25.57
2019-03-02T03:13:58.421Z,26.50
2019-03-02T03:16:27.884Z,27.17
2019-03-02T03:18:57.316Z,27.70
2019-03-02T03:21:27.767Z,26.30
2019-03-02T03:24:02.936Z,29.80
2019-03-02T03:26:31.048Z,28.10
2019-03-02T03:29:00.259Z,26.07
2019-03-02T03:31:31.630Z,27.47
2019-03-02T03:34:00.884Z,25.17
2019-03-02T03:36:33.926Z,28.23
2019-03-02T03:39:02.627Z,28.70
2019-03-02T03:41:32.652Z,28.43
2019-03-02T03:44:02.087Z,28.30
2019-03-02T03:46:31.528Z,26.43
2019-03-02T03:49:00.969Z,24.57
2019-03-02T03:51:32.021Z,27.77
2019-03-02T03:54:07.152Z,26.63
2019-03-02T03:56:32.815Z,25.93
2019-03-02T03:59:02.244Z,29.07
2019-03-02T04:01:31.692Z,26.73
2019-03-02T04:04:01.186Z,27.50
2019-03-02T04:06:30.637Z,28.67
2019-03-02T04:09:03.114Z,28.53
2019-03-02T04:11:31.233Z,25.67
2019-03-02T04:14:00.672Z,29.47
2019-03-02T04:16:30.163Z,24.37
2019-03-02T04:19:00.137Z,26.47
2019-03-02T04:21:36.820Z,27.87
2019-03-02T04:24:06.337Z,26.43
2019-03-02T04:26:36.726Z,27.53
2019-03-02T04:29:10.037Z,27.33
2019-03-02T04:31:38.130Z,29.50
2019-03-02T04:34:07.561Z,28.70
2019-03-02T04:36:37.008Z,29.77
2019-03-02T04:39:09.488Z,30.53
2019-03-02T04:41:39.678Z,31.80
2019-03-02T04:44:09.503Z,28.27
2019-03-02T04:46:39.013Z,26.73
2019-03-02T04:49:10.989Z,28.07
2019-03-02T04:51:40.141Z,27.07
2019-03-02T04:54:09.744Z,29.00
2019-03-02T04:56:39.190Z,28.20
2019-03-02T04:59:08.629Z,28.57
2019-03-02T05:01:43.077Z,28.17
2019-03-02T05:04:10.196Z,27.10
2019-03-02T05:06:39.637Z,26.07
2019-03-02T05:09:09.272Z,29.13
2019-03-02T05:11:39.335Z,28.87
2019-03-02T05:14:10.069Z,26.57
2019-03-02T05:16:39.504Z,29.47
2019-03-02T05:19:08.966Z,28.30
2019-03-02T05:21:39.867Z,26.23
2019-03-02T05:24:10.199Z,28.30
2019-03-02T05:26:39.775Z,28.77
2019-03-02T05:29:09.272Z,26.97
2019-03-02T05:31:40.920Z,28.33
2019-03-02T05:34:09.879Z,29.10
2019-03-02T05:36:39.318Z,28.13
2019-03-02T05:39:08.789Z,28.50
2019-03-02T05:41:39.268Z,29.90
2019-03-02T05:44:09.733Z,27.03
2019-03-02T05:46:39.171Z,27.83
2019-03-02T05:49:08.617Z,25.60
2019-03-02T05:51:38.991Z,26.07
2019-03-02T05:54:09.215Z,28.73
2019-03-02T05:56:38.641Z,26.10
2019-03-02T05:59:08.091Z,28.07
2019-03-02T06:01:40.482Z,26.43
2019-03-02T06:04:08.736Z,22.87
2019-03-02T06:06:38.165Z,27.07
2019-03-02T06:09:13.993Z,24.90
2019-03-02T06:11:41.842Z,22.70
2019-03-02T06:14:11.324Z,23.47
2019-03-02T06:16:40.775Z,22.83
2019-03-02T06:19:10.226Z,23.57
2019-03-02T06:21:42.778Z,23.00
2019-03-02T06:24:10.870Z,20.70
2019-03-02T06:26:40.321Z,21.37
2019-03-02T06:29:09.751Z,22.60
2019-03-02T06:31:39.180Z,22.80
2019-03-02T06:34:09.557Z,19.77
2019-03-02T06:36:41.016Z,21.47
2019-03-02T06:39:10.164Z,21.63
2019-03-02T06:41:39.618Z,23.20
2019-03-02T06:44:09.071Z,27.07
2019-03-02T06:46:38.502Z,25.20
2019-03-02T06:49:07.956Z,23.70
2019-03-02T06:51:37.393Z,23.73
2019-03-02T06:54:09.125Z,25.63
2019-03-02T06:56:39.520Z,28.67
2019-03-02T06:59:09.074Z,27.90
2019-03-02T07:01:38.574Z,26.87
2019-03-02T07:04:08.023Z,29.53
2019-03-02T07:06:37.455Z,28.83
2019-03-02T07:09:09.618Z,28.53
2019-03-02T07:11:38.756Z,27.07
2019-03-02T07:14:08.214Z,28.33
2019-03-02T07:16:37.650Z,27.83
2019-03-02T07:19:21.824Z,32.80
2019-03-02T07:21:51.291Z,29.03
2019-03-02T07:24:20.737Z,28.60
2019-03-02T07:26:51.541Z,26.80
2019-03-02T07:29:21.108Z,26.73
2019-03-02T07:31:50.539Z,31.63
2019-03-02T07:34:19.992Z,27.27
2019-03-02T07:36:49.429Z,30.20
2019-03-02T07:39:18.894Z,29.57
2019-03-02T07:41:48.332Z,28.50
2019-03-02T07:44:18.835Z,30.50
2019-03-02T07:46:49.159Z,31.70
2019-03-02T07:49:18.696Z,33.70
2019-03-02T07:51:48.107Z,30.20
2019-03-02T07:54:17.566Z,27.37
2019-03-02T07:56:47.003Z,27.83
2019-03-02T07:59:16.466Z,32.37
2019-03-02T08:01:48.874Z,28.90
2019-03-02T08:04:17.082Z,26.07
2019-03-02T08:06:46.525Z,28.07
2019-03-02T08:09:15.961Z,31.77
2019-03-02T08:11:45.605Z,31.17
2019-03-02T08:14:16.575Z,27.33
2019-03-02T08:16:46.010Z,29.23
2019-03-02T08:19:15.444Z,30.80
2019-03-02T08:21:44.874Z,28.43
2019-03-02T08:24:14.324Z,31.53
2019-03-02T08:26:43.747Z,32.03
2019-03-02T08:29:14.277Z,27.53
2019-03-02T08:31:45.642Z,29.47
2019-03-02T08:34:14.896Z,28.23
2019-03-02T08:36:44.347Z,30.57
2019-03-02T08:39:14.707Z,30.33
2019-03-02T08:41:44.195Z,28.27
2019-03-02T08:44:15.564Z,27.33
2019-03-02T08:46:44.892Z,28.20
2019-03-02T08:49:14.334Z,27.33
2019-03-02T08:51:43.810Z,27.70
2019-03-02T08:54:13.247Z,29.13
2019-03-02T08:56:43.903Z,29.77
2019-03-02T08:59:13.861Z,29.73
2019-03-02T09:01:43.314Z,29.50
2019-03-02T09:04:13.993Z,30.50
2019-03-02T09:06:43.920Z,28.50
2019-03-02T09:09:13.374Z,26.40
2019-03-02T09:11:44.505Z,28.00
2019-03-02T09:14:14.038Z,28.40
2019-03-02T09:16:43.479Z,27.53
2019-03-02T09:19:12.932Z,28.50
2019-03-02T09:21:44.670Z,25.57
2019-03-02T09:24:14.240Z,25.77
2019-03-02T09:26:44.844Z,24.07
2019-03-02T09:29:14.415Z,26.10
2019-03-02T09:31:44.027Z,27.00
2019-03-02T09:34:13.500Z,24.67
2019-03-02T09:36:43.579Z,25.73
2019-03-02T09:39:13.134Z,26.83
2019-03-02T09:41:42.561Z,22.73
2019-03-02T09:44:12.011Z,28.87
2019-03-02T09:46:41.520Z,22.53
2019-03-02T09:49:11.903Z,23.67
2019-03-02T09:51:44.649Z,20.63
2019-03-02T09:54:12.526Z,23.30
2019-03-02T09:56:41.965Z,23.43
2019-03-02T09:59:11.420Z,21.43
2019-03-02T10:01:40.862Z,23.07
2019-03-02T10:04:10.307Z,26.00
2019-03-02T10:06:39.732Z,21.60
2019-03-02T10:09:09.418Z,22.40
2019-03-02T10:11:38.841Z,22.67
2019-03-02T10:14:26.622Z,23.20
2019-03-02T10:16:56.216Z,20.77
2019-03-02T10:19:28.841Z,23.13
2019-03-02T10:21:56.816Z,20.27
2019-03-02T10:24:26.296Z,19.23
2019-03-02T10:26:55.749Z,23.73
2019-03-02T10:29:25.190Z,22.77
2019-03-02T10:31:54.624Z,19.17
2019-03-02T10:34:24.070Z,19.37
2019-03-02T10:36:53.536Z,18.63
2019-03-02T10:39:22.978Z,19.50
2019-03-02T10:41:52.979Z,20.70
2019-03-02T10:44:23.582Z,24.00
2019-03-02T10:46:53.024Z,18.63
2019-03-02T10:49:22.459Z,16.47
2019-03-02T10:51:51.889Z,19.27
2019-03-02T10:54:21.340Z,17.10
2019-03-02T10:56:50.784Z,17.60
2019-03-02T10:59:20.235Z,18.87
2019-03-02T11:01:49.680Z,17.27
2019-03-02T11:04:35.514Z,20.70
2019-03-02T11:07:12.984Z,15.77
2019-03-02T11:09:44.166Z,20.43
2019-03-02T11:12:17.411Z,19.80
2019-03-02T11:14:53.652Z,20.07
2019-03-02T11:17:40.788Z,20.63
2019-03-02T11:20:26.964Z,20.07
2019-03-02T11:23:03.832Z,17.37
2019-03-02T11:25:39.139Z,18.57
2019-03-02T11:28:10.207Z,19.83
2019-03-02T11:30:43.939Z,16.53
2019-03-02T11:33:23.662Z,19.80
2019-03-02T11:36:06.433Z,19.03
2019-03-02T11:38:46.199Z,16.67
2019-03-02T11:41:20.984Z,17.17
2019-03-02T11:43:57.957Z,16.27
2019-03-02T11:46:31.445Z,18.73
2019-03-02T11:49:17.725Z,18.57
2019-03-02T11:51:48.807Z,15.23
2019-03-02T11:54:19.880Z,18.87
2019-03-02T11:56:56.757Z,17.57
2019-03-02T11:59:27.838Z,17.47
2019-03-02T12:02:03.863Z,17.27
2019-03-02T12:04:52.269Z,17.60
2019-03-02T12:08:00.352Z,17.70
2019-03-02T12:14:09.969Z,19.37
2019-03-02T12:17:16.707Z,17.60
2019-03-02T12:20:46.658Z,16.27
2019-03-02T12:23:34.130Z,19.27
2019-03-02T12:26:03.535Z,17.97
2019-03-02T12:28:43.570Z,16.83
2019-03-02T12:31:31.870Z,18.77
2019-03-02T12:34:02.288Z,20.00
2019-03-02T12:36:34.152Z,14.17
2019-03-02T12:39:07.174Z,15.27
2019-03-02T12:41:38.125Z,17.10
2019-03-02T12:44:17.517Z,15.27
2019-03-02T12:46:52.197Z,17.87
2019-03-02T12:49:22.641Z,17.97
2019-03-02T12:51:59.537Z,19.50
2019-03-02T12:54:39.283Z,17.47
2019-03-02T12:57:09.617Z,17.73
2019-03-02T12:59:49.521Z,22.27
2019-03-02T13:02:18.754Z,18.87
2019-03-02T13:05:01.597Z,17.27
2019-03-02T13:07:51.711Z,17.17
2019-03-02T13:10:22.856Z,18.67
2019-03-02T13:13:09.204Z,17.87
2019-03-02T13:15:56.325Z,18.13
2019-03-02T13:18:33.160Z,16.83
2019-03-02T13:21:20.057Z,18.17
2019-03-02T13:24:07.397Z,16.63
2019-03-02T13:26:54.627Z,17.83
2019-03-02T13:29:27.396Z,15.23
2019-03-02T13:32:01.723Z,17.33
2019-03-02T13:34:32.797Z,14.70
2019-03-02T13:37:03.889Z,14.53
2019-03-02T13:39:40.866Z,16.03
2019-03-02T13:42:17.468Z,16.97
2019-03-02T13:44:48.575Z,17.60
2019-03-02T13:50:23.020Z,16.50
2019-03-02T13:52:52.254Z,15.27
2019-03-02T13:55:30.185Z,16.40
2019-03-02T13:57:59.479Z,16.83
2019-03-02T14:00:47.917Z,16.17
2019-03-02T14:03:31.380Z,17.47
2019-03-02T14:06:03.135Z,14.97
2019-03-02T14:08:43.302Z,19.67
2019-03-02T14:11:36.354Z,16.33
2019-03-02T14:14:09.326Z,15.07
2019-03-02T14:16:55.240Z,16.70
2019-03-02T14:19:25.671Z,14.77
2019-03-02T14:21:59.377Z,16.87
2019-03-02T14:24:46.883Z,17.30
2019-03-02T14:27:19.242Z,15.53
2019-03-02T14:29:50.339Z,16.87
2019-03-02T14:32:22.518Z,17.07
2019-03-02T14:34:59.171Z,13.53
2019-03-02T14:37:39.869Z,15.20
2019-03-02T14:40:23.853Z,16.67
2019-03-02T14:42:54.928Z,14.90
2019-03-02T14:45:26.002Z,16.80
2019-03-02T14:48:04.248Z,15.37
2019-03-02T14:50:44.002Z,17.10
2019-03-02T14:53:28.730Z,16.57
2019-03-02T14:56:10.138Z,14.77
2019-03-02T14:58:39.724Z,14.40
2019-03-02T15:01:22.354Z,14.87
2019-03-02T15:03:53.453Z,13.57
2019-03-02T15:06:30.425Z,15.37
2019-03-02T15:09:04.470Z,15.87
2019-03-02T15:11:41.208Z,14.63
2019-03-02T15:14:23.999Z,15.63
2019-03-02T15:16:57.839Z,16.60
2019-03-02T15:19:56.196Z,13.57
2019-03-02T15:22:20.556Z,15.97
2019-03-02T15:24:54.775Z,15.87
2019-03-02T15:27:29.013Z,15.33
2019-03-02T15:29:58.210Z,13.33
2019-03-02T15:32:45.513Z,14.10
2019-03-02T15:35:14.917Z,15.50
2019-03-02T15:37:51.520Z,18.13
2019-03-02T15:40:24.650Z,14.00
2019-03-02T15:42:59.765Z,17.27
2019-03-02T15:45:30.922Z,13.83
2019-03-02T15:48:02.027Z,15.80
2019-03-02T15:50:39.206Z,17.27
2019-03-02T15:53:16.182Z,14.60
2019-03-02T15:55:49.424Z,15.60
2019-03-02T15:58:27.417Z,14.47
2019-03-02T16:00:58.491Z,15.67
2019-03-02T16:03:44.834Z,14.80
2019-03-02T16:06:14.017Z,18.00
2019-03-02T16:08:48.882Z,16.50
2019-03-02T16:11:32.631Z,16.07
2019-03-02T16:14:18.932Z,15.87
2019-03-02T16:16:59.967Z,16.30
2019-03-02T16:19:34.113Z,13.97
2019-03-02T16:22:11.106Z,14.73
2019-03-02T16:25:03.607Z,18.10
2019-03-02T16:27:33.087Z,13.70
2019-03-02T16:30:04.182Z,14.87
2019-03-02T16:32:51.868Z,14.40
2019-03-02T16:35:40.139Z,13.47
2019-03-02T16:38:19.037Z,13.33
2019-03-02T16:41:02.006Z,14.10
2019-03-02T16:43:35.504Z,14.73
2019-03-02T16:46:24.899Z,13.30
2019-03-02T16:49:11.270Z,15.43
2019-03-02T16:52:02.286Z,14.40
2019-03-02T16:54:49.472Z,14.47
2019-03-02T16:57:30.359Z,13.00
2019-03-02T16:59:59.572Z,13.97
2019-03-02T17:02:30.647Z,14.33
2019-03-02T17:04:59.924Z,13.37
2019-03-02T17:07:31.331Z,16.23
2019-03-02T17:10:02.936Z,15.87
2019-03-02T17:12:39.973Z,11.97
2019-03-02T17:15:23.645Z,12.77
2019-03-02T17:17:52.959Z,14.87
2019-03-02T17:20:24.052Z,15.63
2019-03-02T17:23:22.107Z,16.50
2019-03-02T17:26:05.064Z,16.00
2019-03-02T17:28:36.558Z,17.27
2019-03-02T17:31:19.944Z,17.97
2019-03-02T17:33:53.893Z,18.33
2019-03-02T17:36:43.076Z,21.67
2019-03-02T17:39:23.795Z,16.77
2019-03-02T17:42:01.751Z,19.60
2019-03-02T17:44:38.527Z,17.20
2019-03-02T17:47:26.625Z,13.87
2019-03-02T17:50:02.962Z,15.47
2019-03-02T17:52:46.709Z,14.70
2019-03-02T17:55:18.861Z,16.33
2019-03-02T17:57:54.577Z,15.87
2019-03-02T18:00:25.290Z,17.23
2019-03-02T18:02:56.354Z,16.70
2019-03-02T18:05:36.152Z,15.13
2019-03-02T18:08:16.105Z,15.03
2019-03-02T18:10:53.047Z,16.53
2019-03-02T18:13:43.247Z,14.03
2019-03-02T18:16:18.889Z,14.40
2019-03-02T18:18:48.324Z,15.53
2019-03-02T18:21:19.593Z,17.10
2019-03-02T18:23:49.089Z,13.43
2019-03-02T18:26:37.883Z,13.73
2019-03-02T18:29:29.271Z,14.50
2019-03-02T18:35:16.167Z,18.57
2019-03-02T18:38:08.911Z,48.63
2019-03-02T18:40:55.458Z,26.60
2019-03-02T18:43:44.803Z,15.27
2019-03-02T18:46:34.731Z,12.37
2019-03-02T18:55:28.806Z,13.80
2019-03-02T18:58:17.590Z,13.80
2019-03-02T19:01:06.452Z,14.90
2019-03-02T19:07:03.654Z,16.93
2019-03-02T19:09:53.517Z,13.13
2019-03-02T19:12:42.278Z,13.40
2019-03-02T19:18:26.000Z,14.63
2019-03-02T19:21:14.798Z,13.67
2019-03-02T19:27:32.042Z,15.20
2019-03-02T19:33:36.518Z,14.60
2019-03-02T19:36:25.305Z,12.53
2019-03-02T19:39:34.979Z,13.30
2019-03-02T19:42:23.770Z,13.23
2019-03-02T19:45:12.813Z,14.77
2019-03-02T19:48:01.593Z,14.57
2019-03-02T19:50:50.423Z,16.07
2019-03-02T19:53:39.201Z,14.33
2019-03-02T19:56:28.014Z,14.60
2019-03-02T19:59:16.793Z,14.17
2019-03-02T20:02:05.651Z,14.17
2019-03-02T20:04:47.008Z,16.83
2019-03-02T20:07:35.810Z,13.83
2019-03-02T20:13:23.498Z,14.07
2019-03-02T20:16:12.283Z,14.53
2019-03-02T20:19:01.074Z,14.77
2019-03-02T20:21:49.955Z,13.83
2019-03-02T20:24:38.702Z,12.40
2019-03-02T20:27:27.526Z,14.47
2019-03-02T20:30:37.227Z,14.93
2019-03-02T20:33:26.015Z,13.93
2019-03-02T20:36:14.794Z,13.50
2019-03-02T20:42:31.988Z,17.13
2019-03-02T20:45:14.319Z,15.03
2019-03-02T20:48:03.105Z,17.60
2019-03-02T20:50:51.907Z,14.00
2019-03-02T20:53:40.675Z,16.03
2019-03-02T20:56:29.496Z,15.20
2019-03-02T20:59:18.263Z,15.33
2019-03-02T21:02:07.078Z,14.37
2019-03-02T21:04:55.900Z,14.87
2019-03-02T21:07:44.661Z,14.87
2019-03-02T21:14:02.304Z,14.67
2019-03-02T21:16:51.130Z,17.10
2019-03-02T21:19:39.913Z,15.00
2019-03-02T21:22:28.760Z,14.53
2019-03-02T21:25:17.690Z,14.90
2019-03-02T21:28:06.457Z,13.93
2019-03-02T21:34:02.995Z,13.83
2019-03-02T21:36:51.857Z,13.43
2019-03-02T21:39:40.625Z,14.07
2019-03-02T21:42:29.400Z,12.63
2019-03-02T21:45:39.107Z,13.30
2019-03-02T21:48:27.853Z,12.87
2019-03-02T21:51:37.560Z,13.97
2019-03-02T21:54:26.337Z,13.87
2019-03-02T21:57:15.105Z,11.50
2019-03-02T22:03:32.270Z,10.73
2019-03-02T22:06:21.218Z,11.17
2019-03-02T22:08:50.645Z,11.80
2019-03-02T22:11:39.622Z,10.70
2019-03-02T22:14:28.408Z,11.37
2019-03-02T22:17:17.210Z,11.93
2019-03-02T22:20:25.290Z,11.43
2019-03-02T22:23:14.089Z,10.83
2019-03-02T22:26:02.873Z,12.80
2019-03-02T22:28:51.762Z,10.70
2019-03-02T22:31:40.549Z,10.57
2019-03-02T22:34:48.633Z,10.63
2019-03-02T22:37:37.451Z,9.07
2019-03-02T22:43:54.850Z,9.57
2019-03-02T22:46:37.009Z,10.13
2019-03-02T22:49:25.807Z,10.77
2019-03-02T22:52:14.587Z,8.80
2019-03-02T22:55:03.351Z,8.90
2019-03-02T22:57:52.153Z,10.33
2019-03-02T23:01:01.832Z,8.23
2019-03-02T23:03:50.673Z,8.50
2019-03-02T23:06:58.492Z,8.40
2019-03-02T23:09:47.267Z,7.97
2019-03-02T23:12:36.039Z,8.63
2019-03-02T23:15:45.717Z,8.97
2019-03-02T23:18:34.481Z,7.80
2019-03-02T23:21:23.260Z,7.57
2019-03-02T23:27:27.289Z,7.40
2019-03-02T23:30:35.426Z,7.30
2019-03-02T23:33:24.191Z,7.90
2019-03-02T23:36:12.960Z,7.70
2019-03-02T23:39:01.732Z,8.47
2019-03-02T23:41:50.494Z,8.50
2019-03-02T23:44:39.348Z,9.17
2019-03-02T23:47:20.809Z,7.80
2019-03-02T23:50:30.491Z,7.70
2019-03-02T23:53:19.262Z,8.93
2019-03-02T23:56:08.029Z,8.17
2019-03-02T23:58:56.800Z,7.90
